Time;durP1;ratioP1;P1;durP2;ratioP2;P2;SDS_P1;SDS_P2;PMS_P1;PMS_P2;Temp;Humidity;BMP_temperature;BMP_pressure;BME280_temperature;BME280_humidity;BME280_pressure;Samples;Min_cycle;Max_cycle;Signal;HPM_P1;HPM_P2
2022/06/23 00:01:05;;;;;;;3.90;2.78;;;;;;;13.27;100.00;101474.03;4997102;28;21662;-80
2022/06/23 00:03:33;;;;;;;3.90;3.10;;;;;;;13.27;100.00;101467.84;5021273;28;20030;-79
2022/06/23 00:06:02;;;;;;;4.10;2.90;;;;;;;13.25;100.00;101469.72;4998723;28;20030;-81
2022/06/23 00:08:27;;;;;;;5.15;3.40;;;;;;;13.23;100.00;101469.78;5029214;28;20103;-80
2022/06/23 00:10:56;;;;;;;5.25;3.38;;;;;;;13.22;100.00;101469.84;5010497;28;20486;-80
2022/06/23 00:13:35;;;;;;;3.13;2.65;;;;;;;13.20;100.00;101469.94;5012827;28;20092;-80
2022/06/23 00:16:03;;;;;;;7.05;3.05;;;;;;;13.17;100.00;101467.41;5009640;28;20128;-80
2022/06/23 00:18:37;;;;;;;4.05;3.03;;;;;;;13.14;100.00;101465.75;5015900;28;20406;-80
2022/06/23 00:21:29;;;;;;;5.88;3.63;;;;;;;13.13;100.00;101464.03;4994758;28;20034;-80
2022/06/23 00:23:59;;;;;;;4.90;3.25;;;;;;;13.11;100.00;101460.59;5009680;28;20136;-80
2022/06/23 00:26:28;;;;;;;5.95;3.35;;;;;;;13.09;100.00;101459.81;5016406;28;20041;-80
2022/06/23 00:28:53;;;;;;;4.93;3.35;;;;;;;13.07;100.00;101456.34;5012094;28;20119;-81
2022/06/23 00:31:28;;;;;;;6.65;3.63;;;;;;;13.04;100.00;101446.69;5010744;28;20041;-79
2022/06/23 00:33:54;;;;;;;5.50;3.50;;;;;;;13.04;100.00;101461.81;5011094;28;21281;-80
2022/06/23 00:36:37;;;;;;;5.47;3.63;;;;;;;13.02;100.00;101453.06;5011088;28;20061;-79
2022/06/23 00:39:19;;;;;;;6.35;3.55;;;;;;;13.03;100.00;101460.09;5012740;28;20048;-80
2022/06/23 00:41:46;;;;;;;4.30;3.60;;;;;;;13.01;100.00;101457.50;5025755;28;20041;-82
2022/06/23 00:44:26;;;;;;;5.03;3.55;;;;;;;13.02;100.00;101448.59;5010299;28;20087;-79
2022/06/23 00:46:54;;;;;;;7.85;4.20;;;;;;;13.02;100.00;101458.38;5007624;28;20400;-81
2022/06/23 00:49:25;;;;;;;6.00;3.92;;;;;;;13.02;100.00;101453.06;5014576;28;20033;-80
2022/06/23 00:51:54;;;;;;;4.45;3.35;;;;;;;12.96;100.00;101448.84;5009406;28;20033;-81
2022/06/23 00:54:27;;;;;;;7.28;4.20;;;;;;;12.93;100.00;101448.13;5026810;28;20048;-81
2022/06/23 00:57:05;;;;;;;5.05;3.90;;;;;;;12.89;100.00;101450.94;5015253;28;20041;-80
2022/06/23 01:00:06;;;;;;;5.60;3.70;;;;;;;12.88;100.00;101454.53;5006250;28;20041;-80
2022/06/23 01:02:37;;;;;;;7.20;4.10;;;;;;;12.85;100.00;101443.19;5021320;28;20053;-82
2022/06/23 01:05:17;;;;;;;5.10;3.67;;;;;;;12.84;100.00;101442.31;5008033;28;21958;-80
2022/06/23 01:07:51;;;;;;;6.32;4.20;;;;;;;12.82;100.00;101449.50;5008833;28;20041;-80
2022/06/23 01:10:39;;;;;;;6.45;4.13;;;;;;;12.79;100.00;101452.28;5023695;28;20052;-78
2022/06/23 01:13:31;;;;;;;7.57;4.38;;;;;;;12.78;100.00;101458.53;5005974;28;20060;-78
2022/06/23 01:16:18;;;;;;;6.60;4.22;;;;;;;12.74;100.00;101454.28;5023426;28;20152;-77
2022/06/23 01:18:55;;;;;;;4.70;3.65;;;;;;;12.72;100.00;101458.81;5011635;28;20033;-78
2022/06/23 01:21:32;;;;;;;7.05;4.18;;;;;;;12.69;100.00;101457.16;5007562;28;20052;-80
2022/06/23 01:23:58;;;;;;;7.45;4.68;;;;;;;12.67;100.00;101453.69;5006702;28;20518;-80
2022/06/23 01:26:30;;;;;;;8.75;4.45;;;;;;;12.66;100.00;101451.09;5011434;28;20040;-82
2022/06/23 01:29:00;;;;;;;8.73;4.50;;;;;;;12.63;100.00;101441.47;5008369;28;20033;-79
2022/06/23 01:31:29;;;;;;;7.93;4.68;;;;;;;12.60;100.00;101442.47;5010595;28;20037;-78
2022/06/23 01:34:32;;;;;;;7.50;4.60;;;;;;;12.58;100.00;101433.72;5006271;28;20039;-81
2022/06/23 01:37:04;;;;;;;7.40;4.82;;;;;;;12.56;100.00;101430.28;4993609;28;20045;-81
2022/06/23 01:39:38;;;;;;;5.73;4.13;;;;;;;12.54;100.00;101421.53;5011414;28;20111;-83
2022/06/23 01:42:30;;;;;;;7.15;4.28;;;;;;;12.53;100.00;101430.41;5009650;28;20041;-81
2022/06/23 01:45:14;;;;;;;7.55;4.57;;;;;;;12.53;100.00;101427.75;5009637;28;20691;-81
2022/06/23 01:47:47;;;;;;;8.07;4.82;;;;;;;12.51;100.00;101429.63;5011213;28;20111;-81
2022/06/23 01:50:12;;;;;;;8.07;5.13;;;;;;;12.48;100.00;101427.97;5007673;28;20557;-81
2022/06/23 01:52:38;;;;;;;9.10;4.53;;;;;;;12.46;100.00;101413.00;5010034;28;20037;-80
2022/06/23 01:55:21;;;;;;;9.48;4.70;;;;;;;12.42;100.00;101411.44;4987134;28;20044;-81
2022/06/23 01:57:49;;;;;;;7.32;4.93;;;;;;;12.41;100.00;101409.72;5007073;28;20040;-81
2022/06/23 02:00:17;;;;;;;7.88;4.70;;;;;;;12.39;100.00;101422.19;5026222;28;20049;-80
2022/06/23 02:02:58;;;;;;;7.95;4.60;;;;;;;12.38;100.00;101415.16;5024174;28;20481;-81
2022/06/23 02:05:47;;;;;;;8.95;5.07;;;;;;;12.38;100.00;101417.81;5025315;28;20156;-81
2022/06/23 02:08:36;;;;;;;8.45;5.10;;;;;;;12.39;100.00;101422.19;4992622;28;20096;-80
2022/06/23 02:11:16;;;;;;;9.70;4.85;;;;;;;12.40;100.00;101422.13;5009375;28;20038;-80
2022/06/23 02:14:19;;;;;;;8.45;5.05;;;;;;;12.38;100.00;101413.38;5007501;28;20045;-80
2022/06/23 02:17:00;;;;;;;8.88;4.80;;;;;;;12.35;100.00;101409.06;4973706;28;20799;-80
2022/06/23 02:19:41;;;;;;;9.55;4.97;;;;;;;12.35;100.00;101411.72;5009844;28;20050;-80
2022/06/23 02:22:39;;;;;;;8.35;5.20;;;;;;;12.35;100.00;101416.16;5006605;28;20064;-79
2022/06/23 02:25:26;;;;;;;8.35;5.30;;;;;;;12.36;100.00;101413.44;4997615;28;20041;-79
2022/06/23 02:28:18;;;;;;;10.00;5.25;;;;;;;12.39;100.00;101414.22;5008048;28;20033;-81
2022/06/23 02:30:51;;;;;;;9.05;5.35;;;;;;;12.39;100.00;101409.78;5023672;28;20034;-82
2022/06/23 02:33:35;;;;;;;8.10;4.80;;;;;;;12.40;100.00;101416.81;5022184;28;20521;-81
2022/06/23 02:36:12;;;;;;;8.68;5.20;;;;;;;12.36;100.00;101413.44;5006100;28;20037;-79
2022/06/23 02:38:45;;;;;;;9.10;5.60;;;;;;;12.31;100.00;101406.63;5009745;28;20455;-80
2022/06/23 02:41:18;;;;;;;9.73;6.00;;;;;;;12.30;100.00;101404.84;5012982;28;20031;-82
2022/06/23 02:44:06;;;;;;;7.90;5.13;;;;;;;12.27;100.00;101399.69;5009068;28;20037;-81
2022/06/23 02:46:43;;;;;;;9.32;5.68;;;;;;;12.23;100.00;101396.31;4993155;28;20651;-82
2022/06/23 02:49:22;;;;;;;10.40;5.78;;;;;;;12.20;100.00;101391.16;4991330;28;20492;-82
2022/06/23 02:52:25;;;;;;;10.43;5.70;;;;;;;12.19;100.00;101390.28;5009086;28;21121;-83
2022/06/23 02:55:22;;;;;;;9.50;5.25;;;;;;;12.17;100.00;101396.59;4992793;28;20041;-81
2022/06/23 02:58:00;;;;;;;8.27;5.43;;;;;;;12.17;100.00;101396.59;5005692;28;20168;-81
2022/06/23 03:00:33;;;;;;;9.77;5.55;;;;;;;12.17;100.00;101402.75;4986627;28;20400;-81
2022/06/23 03:03:14;;;;;;;11.15;6.22;;;;;;;12.18;100.00;101404.47;5007197;28;20033;-82
2022/06/23 03:05:52;;;;;;;10.93;5.90;;;;;;;12.17;100.00;101399.22;4975155;28;20025;-80
2022/06/23 03:08:45;;;;;;;9.85;5.85;;;;;;;12.12;100.00;101399.44;5003917;28;20038;-80
2022/06/23 03:11:51;;;;;;;9.38;6.13;;;;;;;12.14;100.00;101391.41;5009318;28;20056;-82
2022/06/23 03:14:35;;;;;;;10.63;5.60;;;;;;;12.14;100.00;101400.22;5010412;28;20258;-81
2022/06/23 03:17:41;;;;;;;11.20;5.90;;;;;;;12.16;100.00;101400.16;5007747;28;20096;-81
2022/06/23 03:20:25;;;;;;;11.30;6.30;;;;;;;12.17;100.00;101397.47;4998612;28;20057;-81
2022/06/23 03:23:12;;;;;;;10.02;6.40;;;;;;;12.17;100.00;101394.81;5024521;28;20112;-81
2022/06/23 03:25:42;;;;;;;11.10;6.50;;;;;;;12.15;100.00;101401.09;5009035;28;20048;-81
2022/06/23 03:28:15;;;;;;;9.77;6.20;;;;;;;12.16;100.00;101389.56;5008617;28;20034;-81
2022/06/23 03:30:45;;;;;;;10.18;5.78;;;;;;;12.15;100.00;101399.28;5024316;28;20045;-80
2022/06/23 03:33:34;;;;;;;8.63;5.45;;;;;;;12.16;100.00;101395.69;5011707;28;20056;-81
2022/06/23 03:36:24;;;;;;;9.57;6.18;;;;;;;12.20;100.00;101407.09;4990612;28;20048;-79
2022/06/23 03:42:28;;;;;;;9.23;5.32;;;;;;;12.21;100.00;101400.84;5003446;28;20033;-79
2022/06/23 03:44:59;;;;;;;12.48;5.80;;;;;;;12.24;100.00;101397.19;5008701;28;20060;-79
2022/06/23 03:47:35;;;;;;;9.48;5.85;;;;;;;12.24;100.00;101392.72;4992244;28;20488;-80
2022/06/23 03:50:05;;;;;;;10.77;6.55;;;;;;;12.25;100.00;101394.44;5022168;28;20026;-81
2022/06/23 03:52:40;;;;;;;10.38;6.30;;;;;;;12.27;100.00;101397.91;4990594;28;20041;-81
2022/06/23 03:55:08;;;;;;;10.18;6.50;;;;;;;12.30;100.00;101389.81;4977808;28;20028;-81
2022/06/23 03:57:46;;;;;;;10.98;6.47;;;;;;;12.32;100.00;101392.41;5010028;28;20042;-80
2022/06/23 04:00:22;;;;;;;10.63;6.28;;;;;;;12.35;100.00;101406.41;5005112;28;20136;-81
2022/06/23 04:02:53;;;;;;;10.77;6.20;;;;;;;12.38;100.00;101401.88;4996561;28;20080;-81
2022/06/23 04:05:23;;;;;;;9.88;5.82;;;;;;;12.41;100.00;101399.94;5018934;28;20044;-83
2022/06/23 04:07:55;;;;;;;11.20;6.05;;;;;;;12.41;100.00;101388.47;5009327;28;20128;-80
2022/06/23 04:10:30;;;;;;;10.98;6.63;;;;;;;12.38;100.00;101391.25;5016661;28;20043;-80
2022/06/23 04:13:06;;;;;;;11.98;6.70;;;;;;;12.41;100.00;101385.81;4994573;28;20238;-81
2022/06/23 04:15:36;;;;;;;10.65;6.05;;;;;;;12.44;100.00;101385.69;5027033;28;20041;-81
2022/06/23 04:18:05;;;;;;;9.63;6.20;;;;;;;12.46;100.00;101386.47;5011484;28;20037;-80
2022/06/23 04:20:41;;;;;;;12.60;6.30;;;;;;;12.48;100.00;101384.63;5027434;28;20125;-80
2022/06/23 04:23:34;;;;;;;11.85;6.85;;;;;;;12.47;100.00;101382.88;5012741;28;20037;-80
2022/06/23 04:26:14;;;;;;;14.63;7.38;;;;;;;12.47;100.00;101380.22;5009398;28;20029;-80
2022/06/23 04:28:45;;;;;;;11.00;6.05;;;;;;;12.49;100.00;101373.91;5013270;28;20048;-81
2022/06/23 04:31:18;;;;;;;9.45;5.93;;;;;;;12.51;100.00;101384.47;4994020;28;20020;-81
2022/06/23 04:33:44;;;;;;;9.52;6.25;;;;;;;12.55;100.00;101377.22;5007764;28;20026;-81
2022/06/23 04:36:24;;;;;;;13.15;7.03;;;;;;;12.61;100.00;101387.56;5014167;28;20033;-81
2022/06/23 04:38:50;;;;;;;10.63;6.45;;;;;;;12.67;100.00;101383.75;5024746;28;20045;-82
2022/06/23 04:41:26;;;;;;;10.48;6.57;;;;;;;12.73;100.00;101386.13;5025853;28;20041;-80
2022/06/23 04:43:57;;;;;;;13.88;6.50;;;;;;;12.76;100.00;101376.22;4978694;28;20033;-80
2022/06/23 04:46:30;;;;;;;11.38;6.32;;;;;;;12.83;100.00;101383.91;4989693;28;20048;-82
2022/06/23 04:48:58;;;;;;;12.68;7.28;;;;;;;12.88;100.00;101380.13;5025061;28;20064;-80
2022/06/23 04:51:40;;;;;;;10.73;6.38;;;;;;;12.95;100.00;101377.16;5013766;28;20151;-80
2022/06/23 04:54:13;;;;;;;9.90;6.15;;;;;;;13.01;100.00;101374.22;4998827;28;20473;-81
2022/06/23 04:56:50;;;;;;;12.45;6.88;;;;;;;13.07;100.00;101373.09;5025194;28;20091;-81
2022/06/23 04:59:28;;;;;;;13.23;6.55;;;;;;;13.13;100.00;101373.66;5019417;28;20029;-80
2022/06/23 05:01:55;;;;;;;10.65;6.05;;;;;;;13.22;100.00;101380.31;5025350;28;20079;-80
2022/06/23 05:04:27;;;;;;;10.20;6.57;;;;;;;13.36;100.00;101377.00;5025533;28;20145;-80
2022/06/23 05:06:56;;;;;;;12.48;6.60;;;;;;;13.49;100.00;101376.41;4988901;28;21825;-80
2022/06/23 05:09:35;;;;;;;11.40;6.45;;;;;;;13.62;100.00;101372.22;5007952;28;20025;-81
2022/06/23 05:12:12;;;;;;;10.68;6.35;;;;;;;13.73;100.00;101373.47;5004834;28;20140;-79
2022/06/23 05:14:43;;;;;;;10.07;5.82;;;;;;;13.84;100.00;101372.00;5027331;28;20037;-79
2022/06/23 05:17:23;;;;;;;8.88;5.72;;;;;;;13.99;100.00;101361.50;5007499;28;20049;-80
2022/06/23 05:19:52;;;;;;;11.77;5.72;;;;;;;14.13;100.00;101371.44;5006977;28;20462;-78
2022/06/23 05:22:28;;;;;;;9.95;5.75;;;;;;;14.28;100.00;101360.91;5027174;28;20030;-79
2022/06/23 05:24:56;;;;;;;11.18;5.90;;;;;;;14.50;100.00;101356.16;5007197;28;20511;-80
2022/06/23 05:27:31;;;;;;;9.13;5.75;;;;;;;14.73;100.00;101354.06;5008456;28;20129;-80
2022/06/23 05:30:01;;;;;;;7.60;4.60;;;;;;;14.96;100.00;101354.63;5026680;28;20527;-80
2022/06/23 05:32:32;;;;;;;10.15;5.32;;;;;;;15.17;100.00;101357.88;5041638;28;20396;-79
2022/06/23 05:35:05;;;;;;;9.30;5.50;;;;;;;15.31;100.00;101349.06;5006679;28;20049;-80
2022/06/23 05:37:42;;;;;;;8.60;5.05;;;;;;;15.44;100.00;101353.72;5009732;28;20548;-80
2022/06/23 05:40:25;;;;;;;7.38;4.95;;;;;;;15.58;100.00;101356.44;5025930;28;20603;-81
2022/06/23 05:42:50;;;;;;;;;;;;;;;15.74;100.00;101345.72;4998525;28;20744;-79
2022/06/23 05:45:21;;;;;;;8.52;5.00;;;;;;;15.87;100.00;101348.50;4993086;28;20006;-80
2022/06/23 05:47:47;;;;;;;12.30;5.65;;;;;;;16.00;100.00;101339.78;5026991;28;20687;-79
2022/06/23 05:50:19;;;;;;;7.78;5.25;;;;;;;16.16;100.00;101339.72;5012397;28;20029;-80
2022/06/23 05:52:57;;;;;;;8.15;5.32;;;;;;;16.31;100.00;101335.25;5009459;28;20149;-80
2022/06/23 05:55:29;;;;;;;9.32;5.65;;;;;;;16.46;100.00;101335.22;5012197;28;20040;-83
2022/06/23 05:57:59;;;;;;;11.77;5.82;;;;;;;16.62;100.00;101332.47;5026072;28;20048;-80
2022/06/23 06:00:36;;;;;;;7.60;5.40;;;;;;;16.78;100.00;101335.00;4980186;28;20549;-80
2022/06/23 06:03:11;;;;;;;9.13;5.72;;;;;;;16.95;100.00;101337.44;5012821;28;20041;-79
2022/06/23 06:05:43;;;;;;;7.70;5.60;;;;;;;17.07;100.00;101330.50;5011886;28;20080;-81
2022/06/23 06:08:30;;;;;;;12.07;5.57;;;;;;;17.23;100.00;101327.63;5009491;28;20772;-79
2022/06/23 06:11:01;;;;;;;7.22;5.10;;;;;;;17.39;100.00;101340.03;5010047;28;20864;-79
2022/06/23 06:13:36;;;;;;;7.68;5.40;;;;;;;17.55;100.00;101336.31;5027801;28;20057;-78
2022/06/23 06:16:04;;;;;;;7.63;4.80;;;;;;;17.70;100.00;101332.59;5014676;28;20069;-80
2022/06/23 06:18:38;;;;;;;8.30;5.50;;;;;;;17.88;100.00;101329.63;4998903;28;20063;-79
2022/06/23 06:21:06;;;;;;;9.27;5.47;;;;;;;18.09;100.00;101329.97;4989197;28;20034;-80
2022/06/23 06:23:39;;;;;;;8.27;5.10;;;;;;;18.32;100.00;101331.03;5005051;28;20021;-79
2022/06/23 06:26:05;;;;;;;;;;;;;;;18.52;98.82;101328.75;5008549;28;20037;-79
2022/06/23 06:28:32;;;;;;;6.88;4.90;;;;;;;18.67;99.47;101332.16;5008087;28;19971;-76
2022/06/23 06:31:02;;;;;;;7.93;5.05;;;;;;;18.83;99.05;101325.69;4994867;28;20086;-79
2022/06/23 06:33:45;;;;;;;6.47;4.60;;;;;;;19.05;97.65;101327.69;5014022;28;20030;-79
2022/06/23 06:36:23;;;;;;;6.20;4.72;;;;;;;19.30;96.64;101319.63;5012441;28;20117;-79
2022/06/23 06:38:49;;;;;;;6.55;4.72;;;;;;;19.44;97.48;101324.78;5009903;28;20071;-79
2022/06/23 06:41:14;;;;;;;6.07;4.80;;;;;;;19.56;96.64;101328.41;5012917;28;20074;-79
2022/06/23 06:43:40;;;;;;;6.88;4.82;;;;;;;19.73;96.33;101328.94;5008715;28;20083;-80
2022/06/23 06:46:05;;;;;;;7.25;4.88;;;;;;;19.99;95.41;101334.16;5012087;28;20039;-79
2022/06/23 06:48:36;;;;;;;7.22;5.25;;;;;;;20.15;94.04;101336.50;5009999;28;20034;-80
2022/06/23 06:51:08;;;;;;;5.35;4.30;;;;;;;20.25;93.12;101342.00;5007059;28;20065;-79
2022/06/23 06:53:41;;;;;;;;;;;;;;;20.32;90.69;101343.22;5007730;28;20479;-79
2022/06/23 06:56:39;;;;;;;6.90;4.45;;;;;;;20.49;91.14;101340.03;4989136;28;19993;-80
2022/06/23 06:59:18;;;;;;;9.27;5.30;;;;;;;20.74;91.23;101332.69;5012107;28;20038;-81
2022/06/23 07:01:48;;;;;;;6.03;4.40;;;;;;;20.96;91.34;101336.34;5008256;28;20036;-80
2022/06/23 07:04:20;;;;;;;6.10;4.22;;;;;;;21.09;90.28;101329.94;5024996;28;20025;-78
2022/06/23 07:06:50;;;;;;;5.65;4.28;;;;;;;21.24;89.29;101325.97;5027812;28;20030;-79
2022/06/23 07:09:39;;;;;;;5.70;4.45;;;;;;;21.28;86.97;101324.75;5009238;28;20050;-78
2022/06/23 07:12:04;;;;;;;6.50;4.43;;;;;;;21.29;88.00;101312.09;5026916;28;21788;-79
2022/06/23 07:14:44;;;;;;;5.90;4.40;;;;;;;21.37;85.99;101316.88;4991915;28;20041;-79
2022/06/23 07:17:18;;;;;;;6.80;4.78;;;;;;;21.48;85.67;101303.34;5009906;28;20048;-79
2022/06/23 07:19:45;;;;;;;6.63;4.00;;;;;;;21.55;87.44;101301.84;5028634;28;20136;-79
2022/06/23 07:22:29;;;;;;;6.75;4.32;;;;;;;21.66;84.68;101297.34;5011283;28;20906;-79
2022/06/23 07:25:18;;;;;;;5.22;4.13;;;;;;;21.79;82.65;101299.91;5010079;28;20033;-79
2022/06/23 07:28:09;;;;;;;5.38;4.25;;;;;;;21.92;82.68;101313.16;5009054;28;20955;-78
2022/06/23 07:30:40;;;;;;;5.95;4.38;;;;;;;21.98;83.44;101307.22;5001252;28;20054;-78
2022/06/23 07:33:21;;;;;;;5.28;4.28;;;;;;;22.06;81.09;101299.31;5012593;28;20068;-80
2022/06/23 07:35:54;;;;;;;7.97;4.28;;;;;;;22.23;80.79;101305.09;4996218;28;20040;-78
2022/06/23 07:38:46;;;;;;;7.00;4.68;;;;;;;22.45;80.52;101305.88;4980740;28;20531;-78
2022/06/23 07:41:16;;;;;;;4.95;4.22;;;;;;;22.38;78.98;101302.84;5027667;28;20151;-78
2022/06/23 07:44:04;;;;;;;5.72;4.15;;;;;;;22.38;79.51;101297.47;5021927;28;20033;-79
2022/06/23 07:46:31;;;;;;;4.18;3.55;;;;;;;22.46;78.05;101296.78;5021970;28;20037;-79
2022/06/23 07:49:22;;;;;;;4.53;3.55;;;;;;;22.56;77.11;101299.56;5020037;28;20040;-78
2022/06/23 07:51:48;;;;;;;5.82;3.65;;;;;;;22.81;78.90;101308.97;5047020;28;20124;-81
2022/06/23 07:54:19;;;;;;;6.57;3.50;;;;;;;23.05;77.42;101292.38;5018729;28;20029;-78
2022/06/23 07:56:45;;;;;;;4.18;3.63;;;;;;;23.23;77.19;101302.50;5016043;28;20056;-80
2022/06/23 07:59:18;;;;;;;5.32;3.97;;;;;;;23.42;76.27;101300.81;4983607;28;20044;-79
2022/06/23 08:02:08;;;;;;;4.38;3.63;;;;;;;23.46;72.28;101300.38;5018876;28;20025;-78
2022/06/23 08:04:57;;;;;;;5.15;3.92;;;;;;;23.54;73.42;101298.81;5017099;28;20114;-79
2022/06/23 08:07:27;;;;;;;5.45;3.72;;;;;;;23.74;73.70;101296.91;5032813;28;20049;-80
2022/06/23 08:09:55;;;;;;;4.30;3.58;;;;;;;23.73;72.79;101293.38;5011124;28;20032;-77
2022/06/23 08:18:16;;;;;;;4.93;3.63;;;;;;;24.04;71.27;101289.56;5020921;28;20036;-75
2022/06/23 08:20:47;;;;;;;4.50;3.72;;;;;;;24.17;70.39;101283.03;5011050;28;20051;-76
2022/06/23 08:23:14;;;;;;;5.05;4.10;;;;;;;24.31;71.12;101287.06;5015058;28;20113;-76
2022/06/23 08:25:44;;;;;;;6.20;3.50;;;;;;;24.49;70.06;101282.56;5029181;28;20048;-76
2022/06/23 08:28:09;;;;;;;5.00;3.53;;;;;;;24.55;70.11;101278.38;5012309;28;20955;-77
2022/06/23 08:30:40;;;;;;;3.70;3.28;;;;;;;24.66;69.69;101277.31;5011797;28;20030;-77
2022/06/23 08:33:05;;;;;;;3.97;3.58;;;;;;;24.78;69.51;101276.09;5007753;28;20033;-76
2022/06/23 08:35:37;;;;;;;4.38;3.78;;;;;;;24.81;68.80;101275.84;4997357;28;20037;-76
2022/06/23 08:38:26;;;;;;;5.25;3.75;;;;;;;24.95;68.10;101276.31;5000029;28;20041;-77
2022/06/23 08:41:10;;;;;;;4.15;3.35;;;;;;;25.11;69.73;101277.47;5029981;28;20603;-76
2022/06/23 08:43:42;;;;;;;4.28;3.40;;;;;;;25.29;68.73;101272.91;5011067;28;20128;-77
2022/06/23 08:46:41;;;;;;;3.47;3.17;;;;;;;25.34;66.77;101275.13;5013958;28;20040;-77
2022/06/23 08:49:23;;;;;;;3.47;2.83;;;;;;;25.47;66.54;101280.13;5006511;28;20045;-76
2022/06/23 08:52:21;;;;;;;3.85;3.10;;;;;;;25.40;64.00;101282.63;5010130;28;20129;-76
2022/06/23 08:54:59;;;;;;;4.30;3.30;;;;;;;25.40;65.32;101274.50;5027923;28;20042;-75
2022/06/23 08:57:59;;;;;;;5.22;2.83;;;;;;;25.38;65.69;101270.25;5028168;28;21501;-77
2022/06/23 09:00:29;;;;;;;2.88;2.50;;;;;;;25.52;66.51;101263.38;5009234;28;20519;-77
2022/06/23 09:03:00;;;;;;;3.90;2.72;;;;;;;25.66;65.80;101262.88;5013884;28;20028;-77
2022/06/23 09:05:33;;;;;;;3.78;2.95;;;;;;;25.81;65.43;101265.81;5011559;28;20048;-75
2022/06/23 09:08:10;;;;;;;3.47;2.45;;;;;;;25.83;64.58;101252.97;5012654;28;20038;-77
2022/06/23 09:11:02;;;;;;;4.32;2.95;;;;;;;25.95;62.86;101249.97;5011555;28;20744;-76
2022/06/23 09:13:47;;;;;;;;;;;;;;;26.02;60.23;101251.88;5011025;28;20041;-77
2022/06/23 09:16:31;;;;;;;2.58;2.38;;;;;;;26.11;63.68;101250.06;5031782;28;19925;-77
2022/06/23 09:19:00;;;;;;;2.72;2.17;;;;;;;26.19;63.31;101246.50;5030171;28;20124;-76
2022/06/23 09:21:44;;;;;;;2.72;2.17;;;;;;;26.20;60.89;101253.63;5017938;28;20037;-77
2022/06/23 09:24:29;;;;;;;5.28;2.42;;;;;;;26.30;61.12;101245.38;5016706;28;20034;-77
2022/06/23 09:27:15;;;;;;;3.88;2.58;;;;;;;26.37;62.12;101242.88;4995896;28;20049;-74
2022/06/23 09:29:56;;;;;;;2.72;2.50;;;;;;;26.51;59.88;101244.09;5030606;28;20045;-76
2022/06/23 09:32:28;;;;;;;4.00;2.50;;;;;;;26.59;61.84;101238.69;5012364;28;20041;-76
2022/06/23 09:35:01;;;;;;;2.67;2.30;;;;;;;26.65;58.25;101239.88;5013637;28;20037;-75
2022/06/23 09:37:41;;;;;;;3.15;2.05;;;;;;;26.63;57.67;101234.63;5013836;28;20447;-76
2022/06/23 09:40:15;;;;;;;4.13;1.98;;;;;;;26.78;57.53;101239.38;5016747;28;20056;-76
2022/06/23 09:43:02;;;;;;;2.17;1.98;;;;;;;26.86;57.58;101228.56;5012699;28;20129;-76
2022/06/23 09:45:41;;;;;;;3.25;2.63;;;;;;;26.88;57.09;101231.94;5011703;28;20044;-76
2022/06/23 09:48:32;;;;;;;2.30;2.10;;;;;;;26.83;56.22;101231.59;5024946;28;20052;-77
2022/06/23 09:51:18;;;;;;;1.70;1.60;;;;;;;26.91;55.13;101223.47;5018290;28;20597;-77
2022/06/23 09:53:50;;;;;;;3.08;2.20;;;;;;;27.03;55.64;101231.31;5014963;28;20047;-77
2022/06/23 09:56:34;;;;;;;2.75;1.88;;;;;;;27.04;55.37;101233.00;5008794;28;20037;-76
2022/06/23 09:59:40;;;;;;;2.70;1.92;;;;;;;26.91;54.05;101228.91;5011380;28;20045;-75
2022/06/23 10:02:24;;;;;;;2.50;2.13;;;;;;;26.92;53.86;101233.34;5027517;28;20512;-75
2022/06/23 10:04:59;;;;;;;3.08;2.47;;;;;;;26.91;53.87;101238.94;5009225;28;20041;-75
2022/06/23 10:07:30;;;;;;;4.93;2.42;;;;;;;26.87;54.00;101232.97;5012263;28;20665;-75
2022/06/23 10:10:12;;;;;;;2.40;2.13;;;;;;;26.91;53.07;101226.19;5011803;28;20033;-75
2022/06/23 10:12:56;;;;;;;1.90;1.80;;;;;;;26.97;54.44;101221.97;5009993;28;20882;-75
2022/06/23 10:15:25;;;;;;;1.75;1.50;;;;;;;26.96;53.82;101223.81;5004638;28;20708;-74
2022/06/23 10:18:36;;;;;;;2.63;2.00;;;;;;;26.97;51.65;101211.94;5012734;28;20459;-76
2022/06/23 10:21:33;;;;;;;2.20;1.90;;;;;;;27.00;51.96;101210.75;5010870;28;20034;-75
2022/06/23 10:24:15;;;;;;;2.50;1.70;;;;;;;27.02;52.19;101213.31;4994605;28;20030;-77
2022/06/23 10:27:02;;;;;;;2.08;1.88;;;;;;;26.97;52.17;101208.41;5028226;28;20052;-77
2022/06/23 10:29:51;;;;;;;3.20;1.55;;;;;;;26.99;52.28;101209.06;4995438;28;20034;-77
2022/06/23 10:32:38;;;;;;;2.03;1.83;;;;;;;27.06;52.80;101201.09;5015842;28;20072;-77
2022/06/23 10:35:16;;;;;;;2.60;1.50;;;;;;;27.15;53.43;101196.47;5010986;28;20053;-75
2022/06/23 10:38:00;;;;;;;3.05;1.90;;;;;;;27.20;53.06;101202.25;5009607;28;20068;-75
2022/06/23 10:40:34;;;;;;;2.45;1.63;;;;;;;27.24;52.96;101196.31;5010981;28;20025;-75
2022/06/23 10:43:37;;;;;;;2.35;1.63;;;;;;;27.27;51.17;101192.41;5011106;28;20106;-75
2022/06/23 10:46:21;;;;;;;2.78;1.85;;;;;;;27.30;50.48;101193.94;5011976;28;20096;-75
2022/06/23 10:48:51;;;;;;;2.63;1.75;;;;;;;27.35;51.08;101186.13;5008318;28;20049;-76
2022/06/23 10:51:54;;;;;;;2.08;1.40;;;;;;;27.44;50.98;101189.66;5012296;28;20565;-74
2022/06/23 10:54:47;;;;;;;2.10;1.80;;;;;;;27.49;50.46;101182.69;5008594;28;20120;-75
2022/06/23 10:57:15;;;;;;;;;;;;;;;27.50;50.35;101178.06;4985449;28;20140;-75
2022/06/23 10:59:44;;;;;;;1.70;1.60;;;;;;;27.54;51.71;101178.59;5015556;28;20459;-75
2022/06/23 11:02:23;;;;;;;2.50;1.85;;;;;;;27.55;50.80;101170.25;5009425;28;20040;-75
2022/06/23 11:05:16;;;;;;;2.28;1.80;;;;;;;27.57;51.53;101168.25;5010119;28;20030;-76
2022/06/23 11:08:08;;;;;;;1.92;1.70;;;;;;;27.60;51.05;101165.16;5003987;28;20080;-75
2022/06/23 11:10:44;;;;;;;3.50;1.63;;;;;;;27.58;51.79;101167.22;5024507;28;20607;-75
2022/06/23 11:13:28;;;;;;;3.47;1.92;;;;;;;27.60;52.31;101161.59;5024542;28;20137;-74
2022/06/23 11:16:04;;;;;;;2.72;2.10;;;;;;;27.58;51.83;101166.38;5013427;28;20617;-74
2022/06/23 11:18:48;;;;;;;2.45;1.77;;;;;;;27.59;51.80;101166.19;4999060;28;20036;-74
2022/06/23 11:21:51;;;;;;;1.73;1.63;;;;;;;27.62;51.02;101156.84;5014345;28;20536;-74
2022/06/23 11:24:45;;;;;;;2.88;1.60;;;;;;;27.64;50.19;101152.06;5013870;28;20045;-75
2022/06/23 11:27:26;;;;;;;2.63;1.60;;;;;;;27.63;50.52;101156.66;5015903;28;20021;-75
2022/06/23 11:30:07;;;;;;;1.83;1.63;;;;;;;27.64;51.18;101154.78;5011354;28;20052;-73
2022/06/23 11:32:40;;;;;;;1.60;1.50;;;;;;;27.65;50.72;101157.34;5016055;28;20400;-75
2022/06/23 11:35:47;;;;;;;2.72;1.88;;;;;;;27.66;50.31;101152.72;5010715;28;20713;-74
2022/06/23 11:38:23;;;;;;;2.67;1.90;;;;;;;27.71;51.16;101146.78;5006323;28;20053;-74
2022/06/23 11:41:09;;;;;;;3.53;1.90;;;;;;;27.70;50.30;101143.22;5027071;28;20083;-75
2022/06/23 11:43:38;;;;;;;1.42;1.30;;;;;;;27.72;51.18;101143.88;5014041;28;20480;-75
2022/06/23 11:46:16;;;;;;;1.60;1.50;;;;;;;27.76;50.31;101147.94;5015371;28;20169;-74
2022/06/23 11:48:44;;;;;;;1.65;1.50;;;;;;;27.79;51.07;101142.16;5013662;28;20032;-75
2022/06/23 12:02:26;;;;;;;3.03;1.77;;;;;;;28.18;50.66;101132.28;5001832;28;20088;-73
2022/06/23 12:04:54;;;;;;;2.00;1.80;;;;;;;28.26;50.89;101128.66;4970703;28;20042;-73
2022/06/23 12:08:19;;;;;;;2.40;1.80;;;;;;;28.32;50.62;101127.09;4970675;28;20084;-74
2022/06/23 12:10:44;;;;;;;1.90;1.80;;;;;;;28.39;50.68;101117.19;4934838;28;20755;-87
2022/06/23 12:13:10;;;;;;;3.05;1.83;;;;;;;28.38;50.40;101125.53;4974669;28;20054;-77
2022/06/23 12:15:41;;;;;;;2.25;2.00;;;;;;;28.36;49.56;101122.97;4977412;28;20048;-79
2022/06/23 12:18:23;;;;;;;2.50;1.90;;;;;;;28.35;49.30;101120.44;4994649;28;20559;-77
2022/06/23 12:20:57;;;;;;;2.33;2.03;;;;;;;28.31;48.61;101120.81;4977758;28;20657;-78
2022/06/23 12:23:25;;;;;;;1.85;1.73;;;;;;;28.38;49.73;101111.91;4991688;28;20172;-77
2022/06/23 12:26:08;;;;;;;2.30;2.10;;;;;;;28.38;49.40;101109.19;4994778;28;20065;-77
2022/06/23 12:28:39;;;;;;;;;;;;;;;28.36;48.40;101095.75;4985495;28;20035;-77
2022/06/23 12:31:34;;;;;;;2.63;1.95;;;;;;;28.32;49.65;101100.72;4975367;28;19987;-77